createdAt,value
2023-04-22T00:02:24.484Z,23.53
2023-04-22T00:04:51.688Z,23.40
2023-04-22T00:07:18.663Z,22.50
2023-04-22T00:09:46.037Z,23.30
2023-04-22T00:12:13.265Z,23.67
2023-04-22T00:14:40.543Z,24.60
2023-04-22T00:17:07.504Z,24.90
2023-04-22T00:19:35.085Z,24.43
2023-04-22T00:22:03.128Z,24.37
2023-04-22T00:24:30.301Z,25.50
2023-04-22T00:26:57.338Z,24.70
2023-04-22T00:29:26.021Z,23.97
2023-04-22T00:31:54.155Z,25.40
2023-04-22T00:34:21.444Z,24.33
2023-04-22T00:36:48.428Z,22.37
2023-04-22T00:39:15.453Z,24.33
2023-04-22T00:41:42.928Z,22.80
2023-04-22T00:44:11.185Z,23.50
2023-04-22T00:46:42.136Z,23.37
2023-04-22T00:49:09.399Z,22.47
2023-04-22T00:51:36.432Z,23.50
2023-04-22T00:54:04.675Z,22.93
2023-04-22T00:56:33.975Z,21.77
2023-04-22T00:59:01.060Z,21.17
2023-04-22T01:01:29.808Z,19.27
2023-04-22T01:03:57.368Z,18.70
2023-04-22T01:06:24.679Z,19.17
2023-04-22T01:08:51.616Z,19.70
2023-04-22T01:11:19.105Z,20.50
2023-04-22T01:13:46.597Z,19.77
2023-04-22T01:16:13.761Z,19.53
2023-04-22T01:18:40.788Z,21.90
2023-04-22T01:21:08.803Z,19.83
2023-04-22T01:23:35.954Z,23.07
2023-04-22T01:26:02.850Z,22.53
2023-04-22T01:28:29.723Z,21.33
2023-04-22T01:30:57.088Z,19.73
2023-04-22T01:33:24.303Z,20.03
2023-04-22T01:35:51.114Z,20.73
2023-04-22T01:38:18.258Z,20.13
2023-04-22T01:40:45.024Z,19.87
2023-04-22T01:43:11.974Z,19.57
2023-04-22T01:45:38.844Z,19.80
2023-04-22T01:48:08.715Z,20.60
2023-04-22T01:50:37.226Z,20.13
2023-04-22T01:53:04.230Z,19.97
2023-04-22T01:55:36.024Z,17.50
2023-04-22T01:58:04.307Z,20.07
2023-04-22T02:00:31.737Z,18.77
2023-04-22T02:02:58.724Z,20.17
2023-04-22T02:05:26.352Z,20.73
2023-04-22T02:07:53.625Z,21.53
2023-04-22T02:10:21.146Z,22.63
2023-04-22T02:12:48.257Z,22.40
2023-04-22T02:15:15.331Z,22.33
2023-04-22T02:17:43.585Z,22.60
2023-04-22T02:20:11.431Z,26.37
2023-04-22T02:22:39.485Z,28.00
2023-04-22T02:25:06.827Z,29.77
2023-04-22T02:27:33.883Z,28.73
2023-04-22T02:30:00.648Z,28.53
2023-04-22T02:32:27.497Z,30.37
2023-04-22T02:34:54.436Z,27.50
2023-04-22T02:37:22.871Z,25.07
2023-04-22T02:39:50.086Z,23.50
2023-04-22T02:42:17.038Z,24.53
2023-04-22T02:44:43.855Z,23.53
2023-04-22T02:47:11.502Z,22.27
2023-04-22T02:49:38.792Z,23.90
2023-04-22T02:52:06.152Z,22.10
2023-04-22T02:54:33.077Z,22.70
2023-04-22T02:56:59.977Z,24.47
2023-04-22T02:59:26.839Z,24.97
2023-04-22T03:01:53.710Z,24.67
2023-04-22T03:04:22.045Z,25.03
2023-04-22T03:06:49.857Z,23.97
2023-04-22T03:09:17.376Z,23.90
2023-04-22T03:11:44.640Z,22.07
2023-04-22T03:14:11.571Z,25.33
2023-04-22T03:16:38.703Z,23.03
2023-04-22T03:19:06.389Z,23.20
2023-04-22T03:21:33.175Z,22.90
2023-04-22T03:24:00.126Z,24.20
2023-04-22T03:26:26.918Z,23.67
2023-04-22T03:28:53.745Z,24.13
2023-04-22T03:31:21.569Z,22.70
2023-04-22T03:33:48.622Z,21.13
2023-04-22T03:36:16.590Z,21.17
2023-04-22T03:38:43.577Z,21.70
2023-04-22T03:41:10.465Z,21.37
2023-04-22T03:43:37.229Z,18.60
2023-04-22T03:46:04.167Z,18.63
2023-04-22T03:48:35.567Z,19.50
2023-04-22T03:51:02.893Z,19.40
2023-04-22T03:53:29.895Z,18.97
2023-04-22T03:55:56.677Z,17.83
2023-04-22T03:58:24.432Z,18.97
2023-04-22T04:00:51.453Z,18.63
2023-04-22T04:03:18.696Z,17.53
2023-04-22T04:05:45.638Z,19.03
2023-04-22T04:08:12.520Z,17.97
2023-04-22T04:10:39.348Z,18.37
2023-04-22T04:13:06.338Z,18.10
2023-04-22T04:15:34.065Z,18.13
2023-04-22T04:18:01.555Z,17.10
2023-04-22T04:20:28.721Z,18.47
2023-04-22T04:22:56.316Z,18.03
2023-04-22T04:25:23.656Z,18.23
2023-04-22T04:27:51.888Z,16.00
2023-04-22T04:30:19.717Z,16.53
2023-04-22T04:32:46.550Z,16.10
2023-04-22T04:35:14.302Z,18.33
2023-04-22T04:37:43.562Z,18.77
2023-04-22T04:40:12.383Z,17.07
2023-04-22T04:42:39.306Z,18.17
2023-04-22T04:45:09.245Z,18.27
2023-04-22T04:47:36.166Z,18.13
2023-04-22T04:50:04.403Z,17.33
2023-04-22T04:52:33.453Z,17.33
2023-04-22T04:55:00.333Z,16.67
2023-04-22T04:57:27.151Z,17.23
2023-04-22T04:59:53.990Z,17.40
2023-04-22T05:02:20.964Z,16.93
2023-04-22T05:04:48.063Z,17.17
2023-04-22T05:07:15.404Z,17.47
2023-04-22T05:09:42.524Z,15.43
2023-04-22T05:12:09.800Z,15.97
2023-04-22T05:14:36.606Z,15.57
2023-04-22T05:17:03.586Z,16.20
2023-04-22T05:19:30.302Z,15.27
2023-04-22T05:21:57.312Z,15.03
2023-04-22T05:24:24.384Z,13.97
2023-04-22T05:26:52.181Z,14.93
2023-04-22T05:29:20.162Z,13.80
2023-04-22T05:31:47.245Z,14.03
2023-04-22T05:34:14.426Z,14.10
2023-04-22T05:36:41.152Z,14.77
2023-04-22T05:39:08.684Z,12.53
2023-04-22T05:41:35.665Z,13.07
2023-04-22T05:44:02.697Z,12.17
2023-04-22T05:46:29.720Z,12.57
2023-04-22T05:48:56.825Z,12.80
2023-04-22T05:51:23.908Z,12.67
2023-04-22T05:53:51.296Z,11.20
2023-04-22T05:56:18.342Z,11.63
2023-04-22T05:58:45.320Z,12.30
2023-04-22T06:01:12.499Z,11.80
2023-04-22T06:03:39.831Z,12.07
2023-04-22T06:06:07.445Z,10.97
2023-04-22T06:08:34.580Z,10.50
2023-04-22T06:11:01.671Z,10.87
2023-04-22T06:13:28.462Z,11.57
2023-04-22T06:15:55.617Z,10.67
2023-04-22T06:18:22.503Z,11.60
2023-04-22T06:20:49.460Z,11.57
2023-04-22T06:23:16.293Z,11.20
2023-04-22T06:25:43.777Z,11.77
2023-04-22T06:28:13.557Z,10.70
2023-04-22T06:30:40.557Z,11.03
2023-04-22T06:33:07.548Z,10.90
2023-04-22T06:35:34.709Z,11.10
2023-04-22T06:38:02.622Z,11.37
2023-04-22T06:40:29.478Z,10.50
2023-04-22T06:42:56.270Z,10.30
2023-04-22T06:45:23.152Z,11.10
2023-04-22T06:47:51.970Z,10.50
2023-04-22T06:50:18.960Z,9.83
2023-04-22T06:52:46.226Z,9.33
2023-04-22T06:55:13.362Z,9.47
2023-04-22T06:57:40.488Z,10.83
2023-04-22T07:00:10.796Z,9.23
2023-04-22T07:02:37.994Z,10.23
2023-04-22T07:05:05.282Z,10.00
2023-04-22T07:07:32.181Z,10.17
2023-04-22T07:09:58.913Z,10.77
2023-04-22T07:12:26.366Z,9.07
2023-04-22T07:14:53.501Z,8.73
2023-04-22T07:17:22.512Z,9.88
2023-04-22T07:19:49.655Z,8.13
2023-04-22T07:22:16.438Z,7.80
2023-04-22T07:24:43.284Z,7.38
2023-04-22T07:27:11.098Z,7.80
2023-04-22T07:29:38.131Z,7.78
2023-04-22T07:32:05.267Z,7.50
2023-04-22T07:34:32.420Z,6.40
2023-04-22T07:36:59.558Z,6.80
2023-04-22T07:39:26.885Z,5.88
2023-04-22T07:41:53.853Z,6.00
2023-04-22T07:44:21.773Z,5.30
2023-04-22T07:46:49.033Z,5.60
2023-04-22T07:49:17.185Z,5.18
2023-04-22T07:51:45.408Z,4.60
2023-04-22T07:54:12.386Z,5.65
2023-04-22T07:56:39.333Z,6.03
2023-04-22T07:59:06.303Z,5.72
2023-04-22T08:01:33.286Z,6.88
2023-04-22T08:04:00.452Z,6.85
2023-04-22T08:06:28.194Z,5.88
2023-04-22T08:08:55.128Z,5.75
2023-04-22T08:11:22.040Z,5.82
2023-04-22T08:13:49.086Z,5.75
2023-04-22T08:16:16.154Z,6.93
2023-04-22T08:18:43.055Z,5.13
2023-04-22T08:21:10.077Z,5.32
2023-04-22T08:23:36.886Z,5.80
2023-04-22T08:26:04.164Z,4.32
2023-04-22T08:28:31.598Z,3.92
2023-04-22T08:30:58.733Z,2.92
2023-04-22T08:33:27.243Z,3.55
2023-04-22T08:35:54.566Z,3.70
2023-04-22T08:38:21.312Z,3.42
2023-04-22T08:40:48.651Z,3.63
2023-04-22T08:43:15.897Z,4.40
2023-04-22T08:45:43.145Z,4.25
2023-04-22T08:48:10.270Z,4.88
2023-04-22T08:50:39.449Z,4.95
2023-04-22T08:53:06.514Z,4.78
2023-04-22T08:55:35.370Z,4.40
2023-04-22T08:58:04.240Z,4.55
2023-04-22T09:00:32.334Z,4.30
2023-04-22T09:03:03.090Z,4.25
2023-04-22T09:05:32.548Z,4.10
2023-04-22T09:07:59.785Z,4.95
2023-04-22T09:10:26.734Z,4.53
2023-04-22T09:12:54.471Z,4.25
2023-04-22T09:15:21.646Z,2.92
2023-04-22T09:17:52.024Z,2.90
2023-04-22T09:20:19.927Z,3.55
2023-04-22T09:22:49.540Z,3.28
2023-04-22T09:25:27.008Z,3.22
2023-04-22T09:27:55.874Z,3.97
2023-04-22T09:30:28.177Z,3.03
2023-04-22T09:32:57.645Z,2.88
2023-04-22T09:35:36.463Z,3.20
2023-04-22T09:38:06.370Z,3.08
2023-04-22T09:40:34.253Z,3.60
2023-04-22T09:43:03.645Z,3.25
2023-04-22T09:45:33.111Z,3.33
2023-04-22T09:48:17.805Z,3.45
2023-04-22T09:50:46.962Z,3.88
2023-04-22T09:53:19.188Z,2.85
2023-04-22T09:55:49.144Z,4.22
2023-04-22T09:58:23.947Z,4.00
2023-04-22T10:00:54.807Z,4.05
2023-04-22T10:03:21.910Z,3.47
2023-04-22T10:05:49.167Z,3.63
2023-04-22T10:08:16.994Z,3.58
2023-04-22T10:10:44.442Z,3.13
2023-04-22T10:13:11.724Z,2.60
2023-04-22T10:15:57.820Z,2.90
2023-04-22T10:18:28.706Z,2.70
2023-04-22T10:20:57.882Z,2.47
2023-04-22T10:23:25.228Z,3.20
2023-04-22T10:25:56.277Z,2.88
2023-04-22T10:28:24.646Z,2.72
2023-04-22T10:30:51.870Z,3.10
2023-04-22T10:33:21.854Z,3.13
2023-04-22T10:36:10.464Z,3.13
2023-04-22T10:38:39.436Z,2.97
2023-04-22T10:41:06.518Z,3.28
2023-04-22T10:43:45.214Z,2.45
2023-04-22T10:46:32.136Z,2.75
2023-04-22T10:49:08.921Z,2.30
2023-04-22T10:52:01.139Z,2.88
2023-04-22T10:54:31.106Z,3.10
2023-04-22T10:57:07.087Z,4.57
2023-04-22T10:59:42.084Z,2.92
2023-04-22T11:02:09.875Z,2.55
2023-04-22T11:04:37.334Z,3.90
2023-04-22T11:07:28.154Z,2.72
2023-04-22T11:10:09.596Z,2.50
2023-04-22T11:12:39.426Z,3.15
2023-04-22T11:15:17.374Z,2.92
2023-04-22T11:17:46.641Z,2.60
2023-04-22T11:20:18.303Z,3.10
2023-04-22T11:22:47.847Z,2.85
2023-04-22T11:25:15.404Z,2.78
2023-04-22T11:27:43.740Z,2.47
2023-04-22T11:30:18.880Z,2.95
2023-04-22T11:32:48.270Z,2.90
2023-04-22T11:35:18.695Z,2.55
2023-04-22T11:37:48.030Z,2.00
2023-04-22T11:40:30.965Z,2.22
2023-04-22T11:43:01.524Z,2.15
2023-04-22T11:45:30.027Z,2.83
2023-04-22T11:47:57.169Z,2.40
2023-04-22T11:50:26.775Z,2.75
2023-04-22T11:52:58.846Z,2.22
2023-04-22T11:55:32.873Z,2.60
2023-04-22T11:58:07.622Z,2.30
2023-04-22T12:00:37.327Z,2.55
2023-04-22T12:03:08.065Z,2.38
2023-04-22T12:05:40.776Z,2.20
2023-04-22T12:08:11.832Z,2.00
2023-04-22T12:10:44.116Z,1.58
2023-04-22T12:13:18.634Z,2.25
2023-04-22T12:15:45.692Z,1.77
2023-04-22T12:18:12.844Z,1.90
2023-04-22T12:20:41.473Z,1.95
2023-04-22T12:23:15.466Z,1.80
2023-04-22T12:25:43.660Z,1.63
2023-04-22T12:28:11.199Z,1.10
2023-04-22T12:30:38.018Z,1.50
2023-04-22T12:33:04.815Z,1.73
2023-04-22T12:35:31.557Z,1.58
2023-04-22T12:37:58.580Z,1.63
2023-04-22T12:40:25.364Z,1.67
2023-04-22T12:42:52.121Z,1.55
2023-04-22T12:45:19.011Z,1.92
2023-04-22T12:47:47.045Z,1.45
2023-04-22T12:50:13.921Z,1.30
2023-04-22T12:52:40.735Z,1.60
2023-04-22T12:55:08.124Z,1.42
2023-04-22T12:57:35.546Z,1.60
2023-04-22T13:00:02.287Z,1.42
2023-04-22T13:02:29.091Z,1.38
2023-04-22T13:04:56.632Z,1.40
2023-04-22T13:07:23.396Z,1.70
2023-04-22T13:09:50.264Z,1.45
2023-04-22T13:12:16.972Z,1.50
2023-04-22T13:14:44.291Z,1.20
2023-04-22T13:17:11.489Z,1.50
2023-04-22T13:19:38.448Z,1.48
2023-04-22T13:22:05.278Z,1.30
2023-04-22T13:24:32.112Z,1.42
2023-04-22T13:26:59.035Z,1.38
2023-04-22T13:29:27.075Z,1.20
2023-04-22T13:31:53.844Z,1.13
2023-04-22T13:34:20.823Z,1.00
2023-04-22T13:36:47.739Z,1.65
2023-04-22T13:39:15.015Z,1.20
2023-04-22T13:41:42.188Z,1.27
2023-04-22T13:44:12.393Z,1.33
2023-04-22T13:46:39.812Z,1.00
2023-04-22T13:49:06.834Z,1.25
2023-04-22T13:51:33.765Z,1.27
2023-04-22T13:54:01.423Z,1.13
2023-04-22T13:56:29.203Z,1.30
2023-04-22T13:58:56.104Z,1.45
2023-04-22T14:01:23.037Z,1.33
2023-04-22T14:03:50.921Z,1.50
2023-04-22T14:06:19.402Z,1.30
2023-04-22T14:08:46.383Z,1.60
2023-04-22T14:11:13.562Z,1.60
2023-04-22T14:13:40.694Z,1.50
2023-04-22T14:16:09.761Z,1.35
2023-04-22T14:18:38.082Z,1.35
2023-04-22T14:21:07.777Z,1.20
2023-04-22T14:23:36.097Z,1.20
2023-04-22T14:26:03.116Z,1.48
2023-04-22T14:28:29.927Z,1.05
2023-04-22T14:30:57.125Z,1.60
2023-04-22T14:33:24.807Z,1.50
2023-04-22T14:35:52.595Z,1.42
2023-04-22T14:38:20.028Z,1.33
2023-04-22T14:40:47.437Z,1.23
2023-04-22T14:43:15.272Z,1.60
2023-04-22T14:45:41.995Z,0.90
2023-04-22T14:48:08.898Z,1.30
2023-04-22T14:50:35.993Z,1.10
2023-04-22T14:53:02.828Z,1.00
2023-04-22T14:55:31.286Z,1.35
2023-04-22T14:57:58.530Z,1.10
2023-04-22T15:00:26.114Z,1.23
2023-04-22T15:02:54.621Z,1.20
2023-04-22T15:05:23.484Z,1.30
2023-04-22T15:07:51.005Z,1.42
2023-04-22T15:10:18.028Z,1.00
2023-04-22T15:12:45.230Z,1.67
2023-04-22T15:15:16.811Z,1.60
2023-04-22T15:17:44.480Z,1.50
2023-04-22T15:20:12.264Z,1.27
2023-04-22T15:22:43.201Z,1.50
2023-04-22T15:25:10.931Z,1.30
2023-04-22T15:27:38.576Z,1.20
2023-04-22T15:30:06.574Z,1.63
2023-04-22T15:32:33.591Z,1.35
2023-04-22T15:35:00.919Z,1.30
2023-04-22T15:37:27.953Z,1.30
2023-04-22T15:39:54.682Z,1.55
2023-04-22T15:42:21.408Z,1.40
2023-04-22T15:44:48.094Z,1.30
2023-04-22T15:47:16.692Z,1.60
2023-04-22T15:49:44.266Z,1.30
2023-04-22T15:52:11.042Z,1.27
2023-04-22T15:54:37.749Z,1.55
2023-04-22T15:57:04.475Z,1.23
2023-04-22T15:59:31.154Z,1.58
2023-04-22T16:01:57.988Z,1.75
2023-04-22T16:04:25.049Z,1.33
2023-04-22T16:06:51.926Z,1.40
2023-04-22T16:09:19.334Z,1.50
2023-04-22T16:11:46.062Z,1.33
2023-04-22T16:14:12.787Z,1.73
2023-04-22T16:16:41.117Z,1.58
2023-04-22T16:19:08.345Z,1.38
2023-04-22T16:21:35.371Z,1.40
2023-04-22T16:24:02.249Z,1.30
2023-04-22T16:26:28.979Z,1.98
2023-04-22T16:28:55.851Z,1.40
2023-04-22T16:31:23.141Z,1.50
2023-04-22T16:33:53.412Z,1.58
2023-04-22T16:36:20.508Z,2.03
2023-04-22T16:38:47.288Z,1.65
2023-04-22T16:41:15.434Z,1.50
2023-04-22T16:43:42.234Z,1.80
2023-04-22T16:46:09.096Z,1.80
2023-04-22T16:48:36.048Z,2.05
2023-04-22T16:51:02.893Z,3.35
2023-04-22T16:53:30.578Z,3.45
2023-04-22T16:55:57.402Z,3.00
2023-04-22T16:58:24.342Z,4.55
2023-04-22T17:00:51.492Z,2.97
2023-04-22T17:03:18.435Z,3.15
2023-04-22T17:05:45.208Z,2.50
2023-04-22T17:08:11.969Z,3.00
2023-04-22T17:10:44.906Z,3.00
2023-04-22T17:13:13.488Z,2.30
2023-04-22T17:15:41.143Z,2.78
2023-04-22T17:18:08.078Z,3.42
2023-04-22T17:20:36.318Z,2.53
2023-04-22T17:23:04.106Z,2.97
2023-04-22T17:25:31.282Z,2.53
2023-04-22T17:27:58.558Z,2.65
2023-04-22T17:30:25.403Z,2.67
2023-04-22T17:32:52.253Z,3.45
2023-04-22T17:35:19.113Z,1.98
2023-04-22T17:37:45.891Z,2.33
2023-04-22T17:40:12.784Z,2.63
2023-04-22T17:42:45.971Z,2.72
2023-04-22T17:45:13.440Z,2.13
2023-04-22T17:47:40.316Z,3.00
2023-04-22T17:50:07.917Z,2.88
2023-04-22T17:52:34.670Z,2.70
2023-04-22T17:55:01.423Z,2.42
2023-04-22T17:57:28.493Z,2.97
2023-04-22T17:59:55.475Z,3.50
2023-04-22T18:02:22.496Z,5.55
2023-04-22T18:04:49.432Z,7.95
2023-04-22T18:07:16.576Z,5.82
2023-04-22T18:09:43.788Z,7.03
2023-04-22T18:12:10.745Z,6.28
2023-04-22T18:14:37.604Z,6.30
2023-04-22T18:17:04.560Z,5.78
2023-04-22T18:19:31.333Z,5.13
2023-04-22T18:22:00.335Z,5.25
2023-04-22T18:24:27.957Z,5.18
2023-04-22T18:26:54.726Z,7.15
2023-04-22T18:29:21.585Z,6.72
2023-04-22T18:31:48.690Z,7.88
2023-04-22T18:34:15.952Z,7.90
2023-04-22T18:36:42.810Z,8.60
2023-04-22T18:39:10.028Z,14.32
2023-04-22T18:41:38.647Z,13.70
2023-04-22T18:44:05.865Z,13.13
2023-04-22T18:46:32.919Z,16.92
2023-04-22T18:48:59.714Z,18.85
2023-04-22T18:51:27.704Z,30.52
2023-04-22T18:53:54.473Z,62.63
2023-04-22T18:56:21.311Z,56.05
2023-04-22T18:58:48.319Z,36.75
2023-04-22T19:01:15.094Z,30.17
2023-04-22T19:03:42.287Z,25.55
2023-04-22T19:06:09.142Z,24.83
2023-04-22T19:08:35.973Z,20.55
2023-04-22T19:11:02.728Z,17.20
2023-04-22T19:13:30.320Z,19.55
2023-04-22T19:15:57.698Z,16.47
2023-04-22T19:18:24.464Z,19.25
2023-04-22T19:20:51.280Z,20.48
2023-04-22T19:23:18.258Z,21.17
2023-04-22T19:25:44.948Z,33.92
2023-04-22T19:28:12.171Z,34.43
2023-04-22T19:30:38.963Z,29.00
2023-04-22T19:33:05.773Z,28.13
2023-04-22T19:35:32.623Z,27.85
2023-04-22T19:38:00.817Z,29.08
2023-04-22T19:40:27.773Z,28.90
2023-04-22T19:42:54.947Z,29.37
2023-04-22T19:45:21.758Z,30.83
2023-04-22T19:47:48.878Z,32.83
2023-04-22T19:50:16.679Z,35.17
2023-04-22T19:52:46.526Z,36.17
2023-04-22T19:55:13.741Z,37.17
2023-04-22T19:57:42.327Z,37.60
2023-04-22T20:00:11.165Z,34.40
2023-04-22T20:02:38.953Z,31.33
2023-04-22T20:05:06.476Z,30.33
2023-04-22T20:07:34.589Z,29.60
2023-04-22T20:10:05.845Z,33.20
2023-04-22T20:12:33.018Z,36.67
2023-04-22T20:15:00.133Z,35.30
2023-04-22T20:17:27.683Z,36.73
2023-04-22T20:19:55.353Z,39.63
2023-04-22T20:22:26.983Z,44.00
2023-04-22T20:25:03.819Z,47.03
2023-04-22T20:27:31.455Z,48.30
2023-04-22T20:29:59.306Z,47.50
2023-04-22T20:32:28.080Z,47.23
2023-04-22T20:34:56.085Z,45.77
2023-04-22T20:37:24.917Z,46.43
2023-04-22T20:39:53.074Z,44.43
2023-04-22T20:42:21.946Z,44.87
2023-04-22T20:44:48.813Z,46.83
2023-04-22T20:47:16.495Z,44.23
2023-04-22T20:49:43.921Z,45.50
2023-04-22T20:52:11.951Z,52.43
2023-04-22T20:54:39.790Z,49.73
2023-04-22T20:57:07.519Z,51.53
2023-04-22T20:59:35.513Z,52.43
2023-04-22T21:02:07.202Z,51.93
2023-04-22T21:04:34.885Z,49.60
2023-04-22T21:07:06.950Z,50.10
2023-04-22T21:09:34.586Z,50.33
2023-04-22T21:12:02.371Z,53.60
2023-04-22T21:14:29.818Z,49.30
2023-04-22T21:17:32.341Z,50.77
2023-04-22T21:19:59.904Z,48.10
2023-04-22T21:22:26.977Z,47.73
2023-04-22T21:24:54.190Z,47.87
2023-04-22T21:27:22.449Z,51.90
2023-04-22T21:29:50.052Z,50.37
2023-04-22T21:32:17.409Z,48.30
2023-04-22T21:34:45.134Z,51.57
2023-04-22T21:37:13.383Z,49.40
2023-04-22T21:39:40.757Z,48.70
2023-04-22T21:42:08.589Z,51.73
2023-04-22T21:44:36.822Z,50.57
2023-04-22T21:47:04.509Z,55.33
2023-04-22T21:49:31.621Z,55.73
2023-04-22T21:51:59.718Z,53.70
2023-04-22T21:54:26.670Z,51.30
2023-04-22T21:56:53.514Z,51.97
2023-04-22T21:59:20.427Z,50.10
2023-04-22T22:01:47.456Z,50.10
2023-04-22T22:04:16.160Z,50.80
2023-04-22T22:06:44.735Z,49.83
2023-04-22T22:09:12.679Z,49.57
2023-04-22T22:11:39.443Z,48.17
2023-04-22T22:14:06.304Z,44.60
2023-04-22T22:16:33.555Z,44.23
2023-04-22T22:19:02.752Z,44.13
2023-04-22T22:21:31.632Z,41.50
2023-04-22T22:23:58.625Z,41.63
2023-04-22T22:26:26.242Z,41.70
2023-04-22T22:28:53.156Z,39.03
2023-04-22T22:31:20.037Z,36.40
2023-04-22T22:33:47.025Z,32.87
2023-04-22T22:36:14.024Z,30.17
2023-04-22T22:38:40.801Z,27.87
2023-04-22T22:41:07.884Z,27.27
2023-04-22T22:43:34.811Z,24.67
2023-04-22T22:46:02.824Z,24.03
2023-04-22T22:48:30.104Z,22.73
2023-04-22T22:50:57.210Z,22.00
2023-04-22T22:53:24.045Z,20.50
2023-04-22T22:55:50.951Z,22.73
2023-04-22T22:58:17.721Z,21.00
2023-04-22T23:00:44.607Z,20.93
2023-04-22T23:03:11.672Z,18.17
2023-04-22T23:05:38.688Z,17.27
2023-04-22T23:08:05.811Z,18.73
2023-04-22T23:10:32.716Z,16.37
2023-04-22T23:12:59.538Z,16.53
2023-04-22T23:15:26.364Z,15.97
2023-04-22T23:17:53.287Z,15.27
2023-04-22T23:20:20.472Z,15.03
2023-04-22T23:22:50.143Z,15.20
2023-04-22T23:25:17.502Z,15.50
2023-04-22T23:27:45.036Z,14.30
2023-04-22T23:30:12.338Z,14.67
2023-04-22T23:32:43.317Z,14.50
2023-04-22T23:35:12.632Z,13.57
2023-04-22T23:37:45.062Z,13.73
2023-04-22T23:40:12.443Z,14.33
2023-04-22T23:42:39.518Z,14.07
2023-04-22T23:45:07.299Z,13.20
2023-04-22T23:47:34.434Z,11.43
2023-04-22T23:50:01.595Z,12.47
2023-04-22T23:52:28.728Z,12.80
2023-04-22T23:54:57.083Z,12.17
2023-04-22T23:57:24.242Z,13.00
2023-04-22T23:59:51.609Z,12.47
